createdAt,value
2023-03-02T00:00:01.840Z,34.50
2023-03-02T00:02:29.103Z,31.83
2023-03-02T00:04:55.450Z,31.07
2023-03-02T00:07:21.742Z,33.53
2023-03-02T00:09:48.057Z,32.77
2023-03-02T00:12:14.398Z,33.17
2023-03-02T00:14:40.825Z,34.73
2023-03-02T00:17:08.126Z,31.53
2023-03-02T00:19:34.594Z,30.83
2023-03-02T00:22:00.968Z,33.07
2023-03-02T00:24:27.293Z,32.33
2023-03-02T00:26:53.653Z,32.63
2023-03-02T00:29:19.989Z,36.47
2023-03-02T00:31:46.453Z,34.33
2023-03-02T00:34:12.794Z,42.67
2023-03-02T00:36:39.146Z,37.70
2023-03-02T00:39:05.726Z,36.97
2023-03-02T00:41:32.059Z,35.80
2023-03-02T00:43:58.356Z,38.57
2023-03-02T00:46:24.704Z,38.43
2023-03-02T00:48:51.059Z,42.03
2023-03-02T00:51:17.817Z,37.63
2023-03-02T00:53:44.148Z,38.60
2023-03-02T00:56:10.465Z,41.67
2023-03-02T00:58:36.815Z,37.33
2023-03-02T01:01:03.150Z,37.30
2023-03-02T01:03:29.566Z,36.23
2023-03-02T01:05:56.441Z,35.37
2023-03-02T01:08:22.987Z,35.70
2023-03-02T01:10:49.345Z,34.03
2023-03-02T01:13:15.729Z,32.17
2023-03-02T01:15:42.024Z,34.87
2023-03-02T01:18:08.321Z,35.27
2023-03-02T01:20:34.639Z,34.50
2023-03-02T01:23:00.991Z,37.60
2023-03-02T01:25:27.299Z,39.27
2023-03-02T01:27:53.607Z,34.13
2023-03-02T01:30:19.927Z,30.50
2023-03-02T01:32:46.285Z,37.97
2023-03-02T01:35:12.634Z,34.47
2023-03-02T01:37:38.929Z,37.10
2023-03-02T01:40:06.853Z,33.43
2023-03-02T01:42:33.182Z,33.53
2023-03-02T01:44:59.594Z,37.00
2023-03-02T01:47:25.929Z,36.90
2023-03-02T01:49:52.313Z,37.37
2023-03-02T01:52:18.644Z,35.03
2023-03-02T01:54:45.006Z,39.00
2023-03-02T01:57:11.399Z,38.60
2023-03-02T01:59:37.710Z,37.50
2023-03-02T02:02:04.046Z,37.50
2023-03-02T02:04:30.378Z,38.33
2023-03-02T02:06:56.690Z,38.17
2023-03-02T02:09:23.025Z,34.23
2023-03-02T02:11:49.375Z,35.87
2023-03-02T02:14:15.767Z,38.30
2023-03-02T02:16:42.099Z,36.00
2023-03-02T02:19:08.499Z,35.00
2023-03-02T02:21:34.837Z,37.93
2023-03-02T02:24:01.160Z,34.43
2023-03-02T02:26:27.525Z,32.27
2023-03-02T02:28:57.738Z,35.73
2023-03-02T02:31:26.797Z,34.53
2023-03-02T02:33:53.291Z,35.73
2023-03-02T02:36:19.676Z,32.73
2023-03-02T02:38:47.990Z,32.53
2023-03-02T02:41:14.358Z,33.30
2023-03-02T02:43:40.708Z,31.57
2023-03-02T02:46:07.090Z,29.00
2023-03-02T02:48:33.481Z,32.80
2023-03-02T02:51:03.397Z,34.07
2023-03-02T02:53:29.778Z,34.37
2023-03-02T02:55:56.082Z,36.33
2023-03-02T02:58:22.411Z,34.77
2023-03-02T03:00:48.761Z,32.90
2023-03-02T03:03:29.360Z,34.03
2023-03-02T03:05:55.718Z,30.70
2023-03-02T03:08:22.018Z,34.80
2023-03-02T03:10:48.383Z,32.83
2023-03-02T03:13:14.749Z,34.43
2023-03-02T03:15:41.151Z,32.30
2023-03-02T03:18:07.457Z,36.57
2023-03-02T03:20:33.755Z,34.27
2023-03-02T03:23:00.892Z,35.50
2023-03-02T03:25:27.235Z,31.77
2023-03-02T03:27:53.560Z,32.93
2023-03-02T03:30:19.870Z,31.93
2023-03-02T03:32:46.185Z,33.50
2023-03-02T03:35:12.922Z,33.53
2023-03-02T03:37:39.253Z,32.33
2023-03-02T03:40:06.213Z,34.83
2023-03-02T03:42:32.710Z,31.33
2023-03-02T03:44:59.030Z,32.00
2023-03-02T03:47:25.336Z,29.87
2023-03-02T03:49:51.662Z,33.10
2023-03-02T03:52:17.986Z,34.17
2023-03-02T03:54:44.305Z,32.27
2023-03-02T03:57:12.227Z,32.43
2023-03-02T03:59:38.562Z,30.63
2023-03-02T04:02:04.888Z,31.27
2023-03-02T04:04:31.214Z,34.83
2023-03-02T04:06:57.533Z,30.77
2023-03-02T04:09:23.912Z,33.67
2023-03-02T04:11:50.238Z,30.50
2023-03-02T04:14:16.551Z,33.03
2023-03-02T04:16:42.960Z,30.30
2023-03-02T04:19:09.724Z,33.93
2023-03-02T04:21:36.070Z,31.13
2023-03-02T04:24:02.364Z,31.30
2023-03-02T04:26:28.702Z,32.53
2023-03-02T04:28:55.006Z,34.23
2023-03-02T04:31:21.398Z,32.47
2023-03-02T04:33:47.723Z,33.47
2023-03-02T04:36:14.067Z,35.47
2023-03-02T04:38:40.410Z,35.10
2023-03-02T04:41:06.736Z,32.57
2023-03-02T04:43:33.053Z,28.40
2023-03-02T04:45:59.385Z,34.67
2023-03-02T04:48:25.859Z,32.13
2023-03-02T04:50:52.205Z,35.77
2023-03-02T04:53:18.544Z,31.53
2023-03-02T04:55:44.914Z,33.20
2023-03-02T04:58:11.235Z,31.53
2023-03-02T05:00:37.749Z,32.10
2023-03-02T05:03:04.137Z,32.03
2023-03-02T05:05:30.451Z,31.93
2023-03-02T05:07:58.586Z,29.37
2023-03-02T05:10:25.121Z,30.97
2023-03-02T05:12:54.887Z,31.17
2023-03-02T05:15:21.234Z,31.70
2023-03-02T05:17:47.541Z,34.97
2023-03-02T05:20:13.885Z,34.67
2023-03-02T05:22:40.202Z,30.70
2023-03-02T05:25:06.562Z,34.07
2023-03-02T05:27:32.886Z,29.57
2023-03-02T05:29:59.250Z,32.87
2023-03-02T05:32:25.582Z,30.43
2023-03-02T05:34:51.966Z,33.33
2023-03-02T05:37:18.540Z,33.93
2023-03-02T05:39:44.920Z,30.27
2023-03-02T05:42:11.224Z,35.03
2023-03-02T05:44:37.525Z,33.30
2023-03-02T05:47:03.887Z,32.50
2023-03-02T05:49:30.186Z,31.73
2023-03-02T05:51:56.598Z,29.43
2023-03-02T05:54:22.910Z,32.37
2023-03-02T05:56:50.340Z,31.27
2023-03-02T05:59:16.751Z,34.67
2023-03-02T06:01:43.185Z,30.97
2023-03-02T06:04:09.531Z,28.63
2023-03-02T06:06:36.187Z,28.80
2023-03-02T06:09:02.673Z,30.47
2023-03-02T06:11:30.328Z,36.07
2023-03-02T06:13:56.645Z,28.77
2023-03-02T06:16:23.013Z,29.13
2023-03-02T06:18:49.374Z,29.57
2023-03-02T06:21:15.738Z,32.47
2023-03-02T06:23:42.032Z,29.07
2023-03-02T06:26:08.378Z,31.40
2023-03-02T06:28:49.822Z,32.80
2023-03-02T06:31:18.184Z,33.47
2023-03-02T06:33:44.524Z,34.27
2023-03-02T06:36:12.733Z,38.77
2023-03-02T06:38:39.278Z,33.43
2023-03-02T06:41:05.597Z,34.17
2023-03-02T06:43:31.896Z,34.70
2023-03-02T06:46:00.900Z,38.83
2023-03-02T06:48:27.337Z,35.63
2023-03-02T06:50:53.651Z,34.10
2023-03-02T06:53:22.905Z,35.77
2023-03-02T06:55:49.269Z,37.17
2023-03-02T06:58:15.633Z,33.17
2023-03-02T07:00:41.936Z,32.67
2023-03-02T07:03:08.271Z,37.40
2023-03-02T07:05:35.933Z,34.07
2023-03-02T07:08:02.225Z,32.70
2023-03-02T07:10:28.970Z,37.87
2023-03-02T07:12:55.321Z,33.67
2023-03-02T07:15:22.180Z,34.47
2023-03-02T07:17:48.471Z,36.43
2023-03-02T07:20:14.810Z,35.67
2023-03-02T07:22:41.173Z,34.67
2023-03-02T07:25:07.481Z,34.37
2023-03-02T07:27:33.869Z,35.17
2023-03-02T07:30:00.200Z,33.30
2023-03-02T07:32:26.572Z,29.63
2023-03-02T07:34:52.991Z,31.48
2023-03-02T07:37:19.279Z,32.15
2023-03-02T07:39:45.581Z,35.60
2023-03-02T07:42:11.921Z,30.27
2023-03-02T07:44:38.244Z,30.67
2023-03-02T07:47:04.607Z,31.53
2023-03-02T07:49:31.052Z,31.07
2023-03-02T07:51:57.368Z,31.33
2023-03-02T07:54:26.573Z,29.52
2023-03-02T07:56:52.891Z,32.42
2023-03-02T07:59:19.222Z,32.67
2023-03-02T08:01:45.624Z,26.62
2023-03-02T08:04:11.948Z,30.60
2023-03-02T08:06:38.258Z,30.00
2023-03-02T08:09:04.626Z,30.15
2023-03-02T08:11:31.270Z,31.12
2023-03-02T08:13:57.877Z,31.87
2023-03-02T08:16:26.481Z,33.15
2023-03-02T08:18:52.883Z,31.67
2023-03-02T08:21:19.347Z,32.22
2023-03-02T08:23:45.782Z,31.15
2023-03-02T08:26:14.248Z,33.28
2023-03-02T08:28:42.093Z,34.70
2023-03-02T08:31:08.438Z,30.90
2023-03-02T08:33:34.939Z,35.60
2023-03-02T08:36:01.327Z,34.85
2023-03-02T08:38:27.733Z,33.88
2023-03-02T08:40:54.063Z,34.13
2023-03-02T08:43:20.477Z,36.85
2023-03-02T08:45:46.833Z,33.53
2023-03-02T08:48:13.170Z,38.00
2023-03-02T08:50:39.493Z,33.58
2023-03-02T08:53:05.796Z,36.10
2023-03-02T08:55:32.151Z,33.72
2023-03-02T08:57:58.470Z,35.33
2023-03-02T09:00:24.775Z,33.88
2023-03-02T09:02:51.089Z,37.58
2023-03-02T09:05:17.413Z,37.15
2023-03-02T09:07:43.738Z,35.47
2023-03-02T09:10:10.056Z,36.78
2023-03-02T09:12:36.387Z,34.90
2023-03-02T09:15:02.785Z,37.58
2023-03-02T09:17:29.152Z,37.50
2023-03-02T09:19:55.517Z,34.25
2023-03-02T09:22:21.817Z,37.22
2023-03-02T09:24:48.132Z,34.38
2023-03-02T09:27:14.440Z,37.00
2023-03-02T09:29:40.828Z,33.00
2023-03-02T09:32:07.279Z,38.95
2023-03-02T09:34:33.757Z,46.65
2023-03-02T09:37:00.112Z,35.85
2023-03-02T09:39:26.461Z,34.00
2023-03-02T09:41:52.762Z,37.10
2023-03-02T09:44:19.110Z,34.17
2023-03-02T09:46:45.454Z,37.28
2023-03-02T09:49:11.809Z,39.85
2023-03-02T09:51:39.349Z,33.95
2023-03-02T09:54:05.726Z,35.00
2023-03-02T09:56:32.382Z,35.55
2023-03-02T09:58:58.916Z,36.38
2023-03-02T10:01:25.243Z,33.10
2023-03-02T10:03:51.724Z,34.95
2023-03-02T10:06:18.148Z,39.78
2023-03-02T10:08:44.615Z,37.58
2023-03-02T10:11:10.950Z,38.63
2023-03-02T10:13:37.321Z,35.55
2023-03-02T10:16:03.770Z,38.38
2023-03-02T10:18:30.172Z,34.53
2023-03-02T10:20:56.577Z,36.80
2023-03-02T10:23:22.963Z,35.85
2023-03-02T10:25:49.271Z,35.47
2023-03-02T10:28:15.597Z,34.60
2023-03-02T10:30:42.063Z,35.67
2023-03-02T10:33:08.400Z,35.05
2023-03-02T10:35:34.767Z,33.25
2023-03-02T10:38:01.133Z,35.10
2023-03-02T10:40:27.462Z,34.78
2023-03-02T10:42:53.757Z,31.08
2023-03-02T10:45:20.048Z,32.90
2023-03-02T10:47:46.367Z,30.33
2023-03-02T10:50:12.689Z,31.30
2023-03-02T10:52:41.051Z,29.02
2023-03-02T10:55:08.760Z,31.20
2023-03-02T10:57:35.072Z,32.33
2023-03-02T11:00:01.511Z,26.80
2023-03-02T11:02:28.359Z,25.12
2023-03-02T11:04:57.355Z,24.52
2023-03-02T11:07:23.989Z,22.77
2023-03-02T11:09:50.292Z,24.33
2023-03-02T11:12:16.831Z,24.92
2023-03-02T11:14:43.470Z,23.33
2023-03-02T11:17:09.791Z,24.27
2023-03-02T11:19:36.371Z,22.00
2023-03-02T11:22:02.695Z,23.45
2023-03-02T11:24:28.997Z,22.25
2023-03-02T11:26:55.331Z,22.85
2023-03-02T11:29:22.754Z,21.98
2023-03-02T11:31:49.307Z,20.17
2023-03-02T11:34:17.951Z,19.35
2023-03-02T11:36:44.774Z,17.33
2023-03-02T11:39:11.111Z,19.65
2023-03-02T11:41:37.456Z,17.80
2023-03-02T11:44:03.825Z,18.83
2023-03-02T11:46:33.778Z,19.95
2023-03-02T11:49:00.245Z,19.12
2023-03-02T11:51:26.585Z,17.58
2023-03-02T11:53:53.057Z,22.85
2023-03-02T11:56:19.479Z,17.95
2023-03-02T11:58:45.795Z,16.83
2023-03-02T12:01:12.124Z,15.40
2023-03-02T12:03:38.595Z,18.42
2023-03-02T12:06:06.696Z,14.75
2023-03-02T12:08:33.533Z,18.67
2023-03-02T12:10:59.840Z,19.55
2023-03-02T12:13:26.254Z,12.48
2023-03-02T12:15:52.630Z,13.48
2023-03-02T12:18:18.993Z,16.50
2023-03-02T12:20:45.355Z,14.52
2023-03-02T12:23:11.739Z,16.30
2023-03-02T12:25:38.083Z,19.05
2023-03-02T12:28:04.516Z,14.23
2023-03-02T12:30:31.724Z,15.13
2023-03-02T12:32:58.033Z,15.20
2023-03-02T12:35:24.394Z,16.92
2023-03-02T12:37:51.934Z,14.25
2023-03-02T12:40:18.260Z,16.65
2023-03-02T12:42:44.596Z,17.35
2023-03-02T12:45:10.927Z,17.55
2023-03-02T12:47:37.306Z,20.80
2023-03-02T12:50:03.644Z,17.15
2023-03-02T12:52:30.065Z,20.08
2023-03-02T12:54:56.406Z,18.52
2023-03-02T12:57:22.720Z,18.00
2023-03-02T12:59:49.095Z,16.90
2023-03-02T13:02:15.476Z,15.85
2023-03-02T13:04:41.807Z,19.62
2023-03-02T13:07:08.188Z,18.90
2023-03-02T13:09:34.967Z,20.58
2023-03-02T13:12:02.237Z,20.37
2023-03-02T13:14:28.569Z,21.42
2023-03-02T13:16:54.964Z,20.37
2023-03-02T13:19:21.306Z,20.95
2023-03-02T13:21:47.672Z,17.77
2023-03-02T13:24:13.968Z,18.83
2023-03-02T13:26:40.508Z,20.80
2023-03-02T13:29:06.968Z,17.55
2023-03-02T13:31:33.365Z,20.92
2023-03-02T13:33:59.781Z,19.85
2023-03-02T13:36:26.105Z,21.80
2023-03-02T13:38:52.418Z,19.35
2023-03-02T13:41:18.795Z,20.17
2023-03-02T13:43:45.140Z,24.08
2023-03-02T13:46:11.534Z,22.40
2023-03-02T13:48:37.864Z,22.87
2023-03-02T13:51:04.446Z,23.55
2023-03-02T13:53:30.808Z,21.95
2023-03-02T13:55:57.105Z,20.42
2023-03-02T13:58:23.495Z,22.65
2023-03-02T14:00:49.904Z,21.33
2023-03-02T14:03:16.236Z,23.42
2023-03-02T14:05:42.563Z,23.33
2023-03-02T14:08:08.999Z,23.00
2023-03-02T14:10:35.360Z,19.90
2023-03-02T14:13:01.729Z,25.08
2023-03-02T14:15:28.095Z,21.48
2023-03-02T14:17:54.484Z,21.95
2023-03-02T14:20:20.833Z,21.40
2023-03-02T14:22:47.195Z,20.95
2023-03-02T14:25:13.566Z,25.33
2023-03-02T14:27:39.962Z,24.10
2023-03-02T14:30:06.283Z,19.75
2023-03-02T14:32:32.713Z,21.87
2023-03-02T14:34:59.136Z,20.12
2023-03-02T14:37:25.450Z,20.55
2023-03-02T14:39:54.219Z,20.92
2023-03-02T14:42:21.533Z,19.40
2023-03-02T14:44:47.899Z,20.08
2023-03-02T14:47:16.618Z,22.23
2023-03-02T14:49:42.947Z,26.20
2023-03-02T14:52:09.348Z,21.87
2023-03-02T14:54:35.662Z,22.23
2023-03-02T14:57:02.107Z,18.92
2023-03-02T14:59:28.444Z,19.98
2023-03-02T15:01:57.546Z,18.70
2023-03-02T15:04:24.535Z,17.48
2023-03-02T15:06:50.890Z,17.52
2023-03-02T15:09:17.579Z,19.85
2023-03-02T15:11:43.921Z,21.73
2023-03-02T15:14:10.265Z,18.60
2023-03-02T15:16:36.614Z,17.15
2023-03-02T15:19:03.484Z,17.05
2023-03-02T15:21:29.896Z,16.50
2023-03-02T15:23:56.305Z,21.55
2023-03-02T15:26:22.739Z,16.95
2023-03-02T15:28:49.073Z,17.17
2023-03-02T15:31:15.472Z,18.23
2023-03-02T15:33:41.945Z,17.62
2023-03-02T15:36:08.331Z,16.65
2023-03-02T15:38:35.856Z,15.55
2023-03-02T15:41:02.162Z,15.45
2023-03-02T15:43:28.502Z,16.98
2023-03-02T15:45:54.845Z,14.32
2023-03-02T15:48:21.165Z,17.25
2023-03-02T15:50:47.485Z,20.20
2023-03-02T15:53:13.804Z,17.73
2023-03-02T15:55:40.123Z,18.37
2023-03-02T15:58:08.295Z,18.80
2023-03-02T16:00:37.848Z,16.60
2023-03-02T16:03:04.919Z,18.33
2023-03-02T16:05:34.342Z,16.50
2023-03-02T16:08:00.735Z,20.15
2023-03-02T16:10:30.177Z,18.73
2023-03-02T16:12:56.500Z,17.90
2023-03-02T16:15:22.812Z,18.65
2023-03-02T16:17:49.201Z,19.23
2023-03-02T16:20:15.523Z,21.37
2023-03-02T16:22:41.885Z,18.98
2023-03-02T16:25:08.197Z,20.35
2023-03-02T16:27:34.504Z,16.23
2023-03-02T16:30:00.825Z,20.00
2023-03-02T16:32:27.194Z,18.10
2023-03-02T16:34:53.547Z,20.10
2023-03-02T16:37:19.884Z,18.52
2023-03-02T16:39:58.384Z,18.25
2023-03-02T16:42:24.797Z,18.08
2023-03-02T16:44:51.216Z,20.55
2023-03-02T16:47:17.583Z,18.50
2023-03-02T16:49:43.921Z,17.83
2023-03-02T16:52:10.341Z,16.70
2023-03-02T16:54:36.649Z,17.58
2023-03-02T16:57:04.905Z,18.87
2023-03-02T16:59:31.473Z,17.58
2023-03-02T17:02:00.891Z,17.12
2023-03-02T17:04:27.283Z,19.62
2023-03-02T17:07:01.440Z,17.00
2023-03-02T17:09:28.395Z,19.87
2023-03-02T17:11:54.784Z,20.95
2023-03-02T17:14:21.173Z,23.60
2023-03-02T17:16:47.539Z,26.23
2023-03-02T17:19:13.866Z,24.20
2023-03-02T17:21:41.897Z,23.20
2023-03-02T17:24:08.234Z,31.35
2023-03-02T17:26:34.602Z,22.75
2023-03-02T17:29:00.961Z,22.60
2023-03-02T17:31:27.263Z,27.13
2023-03-02T17:33:53.623Z,31.83
2023-03-02T17:36:19.941Z,22.58
2023-03-02T17:38:46.338Z,25.65
2023-03-02T17:41:12.716Z,24.08
2023-03-02T17:43:39.069Z,33.78
2023-03-02T17:46:05.765Z,26.75
2023-03-02T17:48:32.146Z,26.45
2023-03-02T17:50:58.481Z,31.12
2023-03-02T17:53:24.790Z,26.85
2023-03-02T17:55:51.121Z,23.62
2023-03-02T17:58:18.886Z,25.95
2023-03-02T18:00:45.222Z,25.52
2023-03-02T18:03:11.579Z,26.48
2023-03-02T18:05:39.849Z,33.08
2023-03-02T18:08:06.147Z,37.80
2023-03-02T18:10:32.441Z,39.25
2023-03-02T18:12:58.750Z,31.70
2023-03-02T18:15:27.234Z,34.55
2023-03-02T18:17:53.565Z,31.73
2023-03-02T18:20:19.899Z,30.83
2023-03-02T18:22:46.211Z,33.78
2023-03-02T18:25:12.535Z,31.08
2023-03-02T18:27:38.903Z,27.95
2023-03-02T18:30:05.221Z,30.05
2023-03-02T18:32:31.605Z,29.60
2023-03-02T18:34:57.930Z,31.77
2023-03-02T18:37:24.270Z,32.35
2023-03-02T18:39:50.624Z,28.02
2023-03-02T18:42:16.928Z,35.92
2023-03-02T18:44:43.286Z,31.65
2023-03-02T18:47:09.631Z,27.62
2023-03-02T18:49:38.471Z,30.02
2023-03-02T18:52:06.959Z,32.63
2023-03-02T18:54:33.281Z,36.00
2023-03-02T18:57:00.101Z,33.65
2023-03-02T18:59:26.450Z,30.08
2023-03-02T19:01:52.762Z,32.10
2023-03-02T19:04:19.776Z,38.53
2023-03-02T19:06:46.113Z,30.98
2023-03-02T19:09:12.458Z,26.85
2023-03-02T19:11:38.841Z,26.65
2023-03-02T19:14:05.151Z,33.15
2023-03-02T19:16:31.531Z,27.77
2023-03-02T19:18:57.926Z,24.73
2023-03-02T19:21:24.233Z,23.38
2023-03-02T19:23:50.599Z,23.45
2023-03-02T19:26:16.961Z,24.98
2023-03-02T19:28:43.319Z,28.52
2023-03-02T19:31:11.329Z,23.42
2023-03-02T19:33:37.797Z,25.62
2023-03-02T19:36:04.183Z,24.58
2023-03-02T19:38:30.538Z,20.50
2023-03-02T19:40:57.264Z,26.37
2023-03-02T19:43:23.583Z,24.27
2023-03-02T19:45:49.913Z,22.75
2023-03-02T19:48:16.256Z,23.35
2023-03-02T19:50:43.446Z,26.85
2023-03-02T19:53:10.601Z,25.17
2023-03-02T19:55:36.983Z,23.73
2023-03-02T19:58:05.355Z,23.58
2023-03-02T20:00:31.713Z,22.27
2023-03-02T20:02:58.354Z,24.37
2023-03-02T20:05:26.048Z,24.65
2023-03-02T20:07:52.363Z,25.48
2023-03-02T20:10:18.664Z,24.60
2023-03-02T20:12:44.966Z,22.62
2023-03-02T20:15:11.329Z,27.42
2023-03-02T20:17:37.628Z,26.67
2023-03-02T20:20:05.740Z,25.77
2023-03-02T20:22:32.046Z,27.13
2023-03-02T20:24:58.499Z,25.42
2023-03-02T20:27:24.841Z,25.67
2023-03-02T20:29:51.146Z,29.60
2023-03-02T20:32:17.559Z,28.60
2023-03-02T20:34:43.927Z,27.92
2023-03-02T20:37:10.257Z,25.23
2023-03-02T20:39:36.662Z,29.42
2023-03-02T20:42:03.076Z,25.23
2023-03-02T20:44:32.594Z,26.58
2023-03-02T20:46:59.063Z,27.62
2023-03-02T20:49:25.406Z,26.58
2023-03-02T20:51:54.633Z,26.48
2023-03-02T20:54:20.945Z,31.37
2023-03-02T20:56:47.299Z,31.00
2023-03-02T20:59:13.598Z,32.85
2023-03-02T21:01:39.944Z,37.40
2023-03-02T21:04:06.327Z,31.02
2023-03-02T21:06:34.578Z,31.27
2023-03-02T21:09:00.883Z,31.05
2023-03-02T21:11:27.191Z,29.77
2023-03-02T21:13:55.376Z,36.65
2023-03-02T21:16:21.755Z,33.45
2023-03-02T21:18:48.069Z,39.63
2023-03-02T21:21:14.361Z,32.90
2023-03-02T21:23:41.934Z,35.35
2023-03-02T21:26:09.268Z,36.85
2023-03-02T21:28:35.632Z,36.03
2023-03-02T21:31:01.976Z,37.15
2023-03-02T21:33:28.328Z,36.88
2023-03-02T21:35:54.629Z,35.55
2023-03-02T21:38:20.947Z,38.17
2023-03-02T21:40:47.321Z,34.03
2023-03-02T21:43:13.648Z,34.05
2023-03-02T21:45:39.950Z,38.95
2023-03-02T21:48:06.313Z,33.58
2023-03-02T21:50:32.803Z,35.55
2023-03-02T21:52:59.470Z,36.80
2023-03-02T21:55:25.797Z,39.63
2023-03-02T21:57:52.113Z,38.17
2023-03-02T22:00:18.541Z,36.97
2023-03-02T22:02:44.894Z,37.70
2023-03-02T22:05:11.180Z,37.90
2023-03-02T22:07:37.495Z,37.88
2023-03-02T22:10:03.870Z,40.25
2023-03-02T22:12:30.304Z,37.80
2023-03-02T22:14:56.794Z,36.28
2023-03-02T22:17:24.634Z,35.30
2023-03-02T22:19:51.165Z,40.35
2023-03-02T22:22:18.007Z,36.75
2023-03-02T22:24:44.317Z,37.20
2023-03-02T22:27:10.637Z,43.67
2023-03-02T22:29:36.936Z,38.17
2023-03-02T22:32:03.347Z,35.35
2023-03-02T22:34:29.709Z,35.20
2023-03-02T22:36:56.010Z,36.85
2023-03-02T22:39:22.338Z,41.85
2023-03-02T22:41:48.652Z,36.47
2023-03-02T22:44:15.289Z,42.83
2023-03-02T22:46:41.733Z,39.17
2023-03-02T22:49:08.049Z,34.63
2023-03-02T22:51:34.360Z,34.50
2023-03-02T22:54:00.668Z,38.42
2023-03-02T22:56:27.384Z,37.90
2023-03-02T22:58:53.715Z,37.20
2023-03-02T23:01:21.088Z,37.20
2023-03-02T23:03:47.522Z,38.30
2023-03-02T23:06:13.888Z,37.25
2023-03-02T23:08:40.462Z,36.80
2023-03-02T23:11:06.855Z,36.70
2023-03-02T23:13:33.153Z,37.03
2023-03-02T23:15:59.499Z,47.30
2023-03-02T23:18:25.834Z,35.83
2023-03-02T23:20:52.154Z,39.58
2023-03-02T23:23:18.512Z,41.92
2023-03-02T23:25:44.842Z,43.13
2023-03-02T23:28:11.233Z,47.92
2023-03-02T23:30:37.568Z,43.10
2023-03-02T23:33:03.873Z,39.75
2023-03-02T23:35:30.449Z,44.35
2023-03-02T23:37:56.802Z,51.55
2023-03-02T23:40:23.203Z,42.90
2023-03-02T23:42:49.535Z,41.67
2023-03-02T23:45:16.008Z,47.60
2023-03-02T23:47:42.443Z,51.20
2023-03-02T23:50:08.994Z,52.00
2023-03-02T23:52:35.293Z,54.95
2023-03-02T23:55:01.603Z,60.65
2023-03-02T23:57:27.917Z,63.40
2023-03-02T23:59:54.270Z,62.53
